createdAt,value
2018-07-11T00:00:35.334Z,18.49
2018-07-11T00:01:35.364Z,18.47
2018-07-11T00:02:35.381Z,18.49
2018-07-11T00:03:35.716Z,18.49
2018-07-11T00:04:35.694Z,18.43
2018-07-11T00:05:35.716Z,18.47
2018-07-11T00:06:35.728Z,18.4
2018-07-11T00:07:35.753Z,18.45
2018-07-11T00:08:35.504Z,18.4
2018-07-11T00:09:35.794Z,18.43
2018-07-11T00:10:35.282Z,18.34
2018-07-11T00:11:35.833Z,18.37
2018-07-11T00:12:35.863Z,18.28
2018-07-11T00:13:35.882Z,18.33
2018-07-11T00:14:35.633Z,18.28
2018-07-11T00:15:36.020Z,18.28
2018-07-11T00:16:36.026Z,18.28
2018-07-11T00:17:36.047Z,18.23
2018-07-11T00:18:36.186Z,18.33
2018-07-11T00:19:36.063Z,18.22
2018-07-11T00:20:36.081Z,18.23
2018-07-11T00:21:36.095Z,18.22
2018-07-11T00:22:36.158Z,18.16
2018-07-11T00:23:35.828Z,18.2
2018-07-11T00:24:35.577Z,18.15
2018-07-11T00:25:48.610Z,18.16
2018-07-11T00:26:35.895Z,18.19
2018-07-11T00:27:35.643Z,18.11
2018-07-11T00:28:35.932Z,18.15
2018-07-11T00:29:36.233Z,18.23
2018-07-11T00:30:36.239Z,18.15
2018-07-11T00:31:35.993Z,18.18
2018-07-11T00:32:36.278Z,18.04
2018-07-11T00:33:36.324Z,18.07
2018-07-11T00:34:36.067Z,18.1
2018-07-11T00:35:36.103Z,18
2018-07-11T00:36:36.098Z,18.13
2018-07-11T00:37:36.296Z,18.08
2018-07-11T00:38:36.408Z,18.08
2018-07-11T00:39:36.428Z,18.03
2018-07-11T00:40:36.452Z,18.01
2018-07-11T00:41:36.474Z,18.01
2018-07-11T00:42:36.495Z,17.98
2018-07-11T00:43:36.527Z,18.07
2018-07-11T00:44:36.006Z,18
2018-07-11T00:45:36.290Z,17.94
2018-07-11T00:46:36.310Z,17.97
2018-07-11T00:47:36.335Z,17.92
2018-07-11T00:48:36.622Z,17.85
2018-07-11T00:49:36.373Z,17.95
2018-07-11T00:50:36.668Z,17.9
2018-07-11T00:51:36.415Z,17.87
2018-07-11T00:52:36.706Z,17.85
2018-07-11T00:53:36.726Z,17.87
2018-07-11T00:54:36.479Z,17.92
2018-07-11T00:55:36.765Z,17.87
2018-07-11T00:56:36.820Z,17.82
2018-07-11T00:57:36.815Z,17.85
2018-07-11T00:58:36.565Z,17.87
2018-07-11T00:59:36.850Z,17.8
2018-07-11T01:00:36.613Z,17.72
2018-07-11T01:01:36.624Z,17.78
2018-07-11T01:02:36.920Z,17.79
2018-07-11T01:03:36.667Z,17.76
2018-07-11T01:04:36.961Z,17.78
2018-07-11T01:05:36.713Z,17.72
2018-07-11T01:06:37.001Z,17.68
2018-07-11T01:07:37.019Z,17.8
2018-07-11T01:08:37.042Z,17.64
2018-07-11T01:09:37.072Z,17.76
2018-07-11T01:10:37.083Z,17.79
2018-07-11T01:11:37.105Z,17.74
2018-07-11T01:12:37.127Z,17.78
2018-07-11T01:13:37.145Z,17.68
2018-07-11T01:14:37.165Z,17.68
2018-07-11T01:15:36.918Z,17.6
2018-07-11T01:16:37.220Z,17.65
2018-07-11T01:17:37.233Z,17.67
2018-07-11T01:18:36.980Z,17.64
2018-07-11T01:19:36.734Z,17.65
2018-07-11T01:20:37.052Z,17.64
2018-07-11T01:21:37.324Z,17.64
2018-07-11T01:22:37.333Z,17.68
2018-07-11T01:23:37.357Z,17.59
2018-07-11T01:24:37.370Z,17.6
2018-07-11T01:25:37.126Z,17.54
2018-07-11T01:26:37.148Z,17.56
2018-07-11T01:27:37.439Z,17.6
2018-07-11T01:28:37.189Z,17.54
2018-07-11T01:29:37.211Z,17.63
2018-07-11T01:30:37.499Z,17.48
2018-07-11T01:31:37.517Z,17.52
2018-07-11T01:32:37.269Z,17.45
2018-07-11T01:33:37.313Z,17.56
2018-07-11T01:34:37.310Z,17.56
2018-07-11T01:35:37.331Z,17.51
2018-07-11T01:36:37.620Z,17.48
2018-07-11T01:37:37.404Z,17.56
2018-07-11T01:38:37.391Z,17.54
2018-07-11T01:39:37.681Z,17.51
2018-07-11T01:40:37.439Z,17.48
2018-07-11T01:41:37.456Z,17.46
2018-07-11T01:42:37.476Z,17.48
2018-07-11T01:43:37.497Z,17.39
2018-07-11T01:44:37.517Z,17.42
2018-07-11T01:45:37.540Z,17.38
2018-07-11T01:46:37.290Z,17.38
2018-07-11T01:47:37.846Z,17.44
2018-07-11T01:48:37.868Z,17.34
2018-07-11T01:49:37.353Z,17.41
2018-07-11T01:50:37.906Z,17.38
2018-07-11T01:51:37.930Z,17.33
2018-07-11T01:52:37.680Z,17.39
2018-07-11T01:53:37.975Z,17.33
2018-07-11T01:54:37.455Z,17.36
2018-07-11T01:55:37.475Z,17.36
2018-07-11T01:56:38.047Z,17.31
2018-07-11T01:57:38.062Z,17.19
2018-07-11T01:58:38.077Z,17.24
2018-07-11T01:59:37.826Z,17.23
2018-07-11T02:00:38.172Z,17.2
2018-07-11T02:01:38.139Z,17.26
2018-07-11T02:02:38.162Z,17.26
2018-07-11T02:03:37.906Z,17.22
2018-07-11T02:04:37.659Z,17.2
2018-07-11T02:05:37.950Z,17.12
2018-07-11T02:06:38.239Z,17.16
2018-07-11T02:07:37.988Z,17.14
2018-07-11T02:08:38.013Z,17.23
2018-07-11T02:09:38.295Z,17.09
2018-07-11T02:10:38.324Z,17.12
2018-07-11T02:11:38.071Z,17.12
2018-07-11T02:12:38.094Z,17.14
2018-07-11T02:13:38.112Z,17.14
2018-07-11T02:14:38.407Z,17.11
2018-07-11T02:15:38.425Z,17.16
2018-07-11T02:16:38.446Z,17.12
2018-07-11T02:17:38.207Z,17.09
2018-07-11T02:18:38.487Z,17.15
2018-07-11T02:19:37.966Z,17.04
2018-07-11T02:20:38.256Z,17.06
2018-07-11T02:21:38.275Z,17.09
2018-07-11T02:22:38.295Z,16.99
2018-07-11T02:23:38.584Z,17.02
2018-07-11T02:24:38.603Z,16.96
2018-07-11T02:25:38.634Z,17.05
2018-07-11T02:26:38.646Z,17.05
2018-07-11T02:27:38.669Z,17.14
2018-07-11T02:28:38.687Z,16.94
2018-07-11T02:29:38.713Z,16.99
2018-07-11T02:30:38.737Z,17.09
2018-07-11T02:31:38.756Z,17.05
2018-07-11T02:32:38.771Z,17.08
2018-07-11T02:33:38.789Z,16.99
2018-07-11T02:34:38.812Z,17.02
2018-07-11T02:35:38.839Z,17.01
2018-07-11T02:36:38.858Z,17.02
2018-07-11T02:37:38.612Z,17.04
2018-07-11T02:38:38.987Z,17.04
2018-07-11T02:39:38.996Z,17.02
2018-07-11T02:40:39.039Z,16.96
2018-07-11T02:41:39.073Z,16.91
2018-07-11T02:42:39.097Z,16.99
2018-07-11T02:43:39.102Z,16.87
2018-07-11T02:44:39.111Z,16.89
2018-07-11T02:45:38.765Z,16.93
2018-07-11T02:46:39.236Z,16.9
2018-07-11T02:47:38.817Z,16.89
2018-07-11T02:48:39.249Z,16.86
2018-07-11T02:49:39.338Z,16.9
2018-07-11T02:50:39.351Z,16.87
2018-07-11T02:51:39.356Z,16.81
2018-07-11T02:52:39.116Z,16.83
2018-07-11T02:53:39.378Z,16.79
2018-07-11T02:54:38.684Z,16.87
2018-07-11T02:55:38.962Z,16.86
2018-07-11T02:56:38.990Z,16.84
2018-07-11T02:57:39.009Z,16.81
2018-07-11T02:58:39.291Z,16.84
2018-07-11T02:59:39.325Z,16.84
2018-07-11T03:00:39.334Z,16.87
2018-07-11T03:01:39.408Z,16.75
2018-07-11T03:02:39.376Z,16.84
2018-07-11T03:03:39.390Z,16.87
2018-07-11T03:04:39.418Z,16.76
2018-07-11T03:05:39.170Z,16.78
2018-07-11T03:06:39.454Z,16.83
2018-07-11T03:07:39.473Z,16.78
2018-07-11T03:08:39.494Z,16.75
2018-07-11T03:09:39.514Z,16.71
2018-07-11T03:10:39.010Z,16.75
2018-07-11T03:11:39.294Z,16.71
2018-07-11T03:12:39.595Z,16.61
2018-07-11T03:13:39.591Z,16.65
2018-07-11T03:14:39.349Z,16.61
2018-07-11T03:15:39.636Z,16.6
2018-07-11T03:16:39.653Z,16.74
2018-07-11T03:17:39.680Z,16.65
2018-07-11T03:18:39.431Z,16.71
2018-07-11T03:19:39.727Z,16.69
2018-07-11T03:20:39.199Z,16.65
2018-07-11T03:21:39.615Z,16.65
2018-07-11T03:22:39.937Z,16.68
2018-07-11T03:23:39.899Z,16.65
2018-07-11T03:24:39.897Z,16.68
2018-07-11T03:25:39.929Z,16.61
2018-07-11T03:26:39.923Z,16.64
2018-07-11T03:27:39.960Z,16.6
2018-07-11T03:28:39.978Z,16.61
2018-07-11T03:29:39.984Z,16.61
2018-07-11T03:30:40.001Z,16.6
2018-07-11T03:31:39.957Z,16.65
2018-07-11T03:32:40.418Z,16.61
2018-07-11T03:33:40.180Z,16.57
2018-07-11T03:34:40.189Z,16.61
2018-07-11T03:35:39.870Z,16.61
2018-07-11T03:36:40.199Z,16.54
2018-07-11T03:37:39.925Z,16.6
2018-07-11T03:38:40.069Z,16.57
2018-07-11T03:39:39.960Z,16.57
2018-07-11T03:40:40.358Z,16.54
2018-07-11T03:41:40.309Z,16.56
2018-07-11T03:42:40.241Z,16.6
2018-07-11T03:43:40.196Z,16.53
2018-07-11T03:44:40.015Z,16.56
2018-07-11T03:45:40.237Z,16.54
2018-07-11T03:46:40.253Z,16.56
2018-07-11T03:47:40.301Z,16.57
2018-07-11T03:48:40.101Z,16.57
2018-07-11T03:49:40.109Z,16.57
2018-07-11T03:50:40.338Z,16.54
2018-07-11T03:51:40.356Z,16.57
2018-07-11T03:52:40.375Z,16.6
2018-07-11T03:53:40.503Z,16.65
2018-07-11T03:54:40.149Z,16.6
2018-07-11T03:55:40.435Z,16.6
2018-07-11T03:56:40.187Z,16.57
2018-07-11T03:57:40.206Z,16.64
2018-07-11T03:58:40.492Z,16.65
2018-07-11T03:59:40.514Z,16.61
2018-07-11T04:00:40.533Z,16.64
2018-07-11T04:01:40.286Z,16.64
2018-07-11T04:02:40.339Z,16.65
2018-07-11T04:03:40.072Z,16.64
2018-07-11T04:04:40.620Z,16.57
2018-07-11T04:05:40.650Z,16.61
2018-07-11T04:06:40.661Z,16.61
2018-07-11T04:07:40.413Z,16.65
2018-07-11T04:08:40.693Z,16.66
2018-07-11T04:09:40.711Z,16.64
2018-07-11T04:10:40.734Z,16.64
2018-07-11T04:11:40.759Z,16.64
2018-07-11T04:12:40.771Z,16.68
2018-07-11T04:13:40.791Z,16.64
2018-07-11T04:14:40.812Z,16.64
2018-07-11T04:15:40.829Z,16.65
2018-07-11T04:16:40.584Z,16.69
2018-07-11T04:17:40.873Z,16.68
2018-07-11T04:18:40.888Z,16.65
2018-07-11T04:19:40.643Z,16.68
2018-07-11T04:20:40.394Z,16.65
2018-07-11T04:21:40.414Z,16.65
2018-07-11T04:22:40.753Z,16.66
2018-07-11T04:23:40.996Z,16.61
2018-07-11T04:24:41.020Z,16.64
2018-07-11T04:25:41.028Z,16.68
2018-07-11T04:26:41.217Z,16.64
2018-07-11T04:27:40.967Z,16.68
2018-07-11T04:28:41.302Z,16.71
2018-07-11T04:29:41.257Z,16.69
2018-07-11T04:30:41.315Z,16.65
2018-07-11T04:31:41.149Z,16.69
2018-07-11T04:32:41.174Z,16.69
2018-07-11T04:33:41.195Z,16.6
2018-07-11T04:34:41.539Z,16.66
2018-07-11T04:35:40.965Z,16.66
2018-07-11T04:36:41.251Z,16.65
2018-07-11T04:37:41.267Z,16.76
2018-07-11T04:38:41.285Z,16.81
2018-07-11T04:39:41.038Z,16.72
2018-07-11T04:40:41.336Z,16.72
2018-07-11T04:41:41.118Z,16.76
2018-07-11T04:42:41.235Z,16.74
2018-07-11T04:43:41.123Z,16.74
2018-07-11T04:44:41.140Z,16.74
2018-07-11T04:45:41.165Z,16.78
2018-07-11T04:46:40.911Z,16.75
2018-07-11T04:47:40.929Z,16.79
2018-07-11T04:48:40.953Z,16.76
2018-07-11T04:49:41.236Z,16.75
2018-07-11T04:50:40.994Z,16.75
2018-07-11T04:51:41.279Z,16.86
2018-07-11T04:52:41.379Z,16.79
2018-07-11T04:53:41.319Z,16.83
2018-07-11T04:54:41.350Z,16.81
2018-07-11T04:55:41.088Z,16.81
2018-07-11T04:56:41.112Z,16.9
2018-07-11T04:57:41.667Z,16.83
2018-07-11T04:58:41.475Z,16.87
2018-07-11T04:59:41.452Z,16.78
2018-07-11T05:00:41.189Z,16.94
2018-07-11T05:01:41.743Z,16.9
2018-07-11T05:02:41.496Z,16.91
2018-07-11T05:03:41.789Z,16.91
2018-07-11T05:04:41.891Z,16.94
2018-07-11T05:05:41.827Z,16.94
2018-07-11T05:06:41.576Z,17.01
2018-07-11T05:07:41.598Z,16.99
2018-07-11T05:08:41.883Z,17.01
2018-07-11T05:09:41.906Z,16.97
2018-07-11T05:10:41.933Z,17.05
2018-07-11T05:11:41.944Z,16.99
2018-07-11T05:12:41.694Z,17.02
2018-07-11T05:13:41.982Z,17.06
2018-07-11T05:14:42.012Z,17.11
2018-07-11T05:15:42.029Z,17.06
2018-07-11T05:16:41.775Z,17.04
2018-07-11T05:17:41.530Z,17.05
2018-07-11T05:18:42.078Z,17.06
2018-07-11T05:19:41.837Z,17.04
2018-07-11T05:20:42.122Z,17.08
2018-07-11T05:21:42.143Z,17.16
2018-07-11T05:22:42.163Z,17.02
2018-07-11T05:23:41.915Z,17.14
2018-07-11T05:24:42.205Z,17.15
2018-07-11T05:25:42.219Z,17.2
2018-07-11T05:26:41.983Z,17.26
2018-07-11T05:27:42.111Z,17.16
2018-07-11T05:28:42.280Z,17.11
2018-07-11T05:29:41.770Z,17.14
2018-07-11T05:30:42.327Z,17.22
2018-07-11T05:31:42.359Z,17.19
2018-07-11T05:32:42.365Z,17.24
2018-07-11T05:33:42.380Z,17.26
2018-07-11T05:34:42.403Z,17.24
2018-07-11T05:35:42.429Z,17.22
2018-07-11T05:36:42.173Z,17.26
2018-07-11T05:37:41.931Z,17.33
2018-07-11T05:38:42.624Z,17.31
2018-07-11T05:39:42.664Z,17.34
2018-07-11T05:40:42.257Z,17.38
2018-07-11T05:41:42.273Z,17.38
2018-07-11T05:42:42.669Z,17.34
2018-07-11T05:43:42.316Z,17.38
2018-07-11T05:44:42.624Z,17.36
2018-07-11T05:45:42.354Z,17.46
2018-07-11T05:46:42.646Z,17.56
2018-07-11T05:47:42.664Z,17.52
2018-07-11T05:48:42.412Z,17.59
2018-07-11T05:49:42.168Z,17.57
2018-07-11T05:50:42.457Z,17.54
2018-07-11T05:51:42.482Z,17.49
2018-07-11T05:52:42.768Z,17.56
2018-07-11T05:53:42.516Z,17.64
2018-07-11T05:54:42.801Z,17.59
2018-07-11T05:55:42.992Z,17.63
2018-07-11T05:56:42.845Z,17.67
2018-07-11T05:57:42.866Z,17.7
2018-07-11T05:58:42.615Z,17.8
2018-07-11T05:59:42.903Z,17.76
2018-07-11T06:00:42.968Z,17.78
2018-07-11T06:01:42.946Z,17.83
2018-07-11T06:02:43.176Z,17.89
2018-07-11T06:03:42.726Z,17.9
2018-07-11T06:04:42.740Z,17.92
2018-07-11T06:05:43.030Z,17.97
2018-07-11T06:06:42.510Z,17.98
2018-07-11T06:07:43.249Z,17.98
2018-07-11T06:08:42.999Z,18.07
2018-07-11T06:09:42.865Z,18.01
2018-07-11T06:10:43.150Z,18.1
2018-07-11T06:11:43.179Z,18.11
2018-07-11T06:12:42.902Z,18.19
2018-07-11T06:13:43.249Z,18.16
2018-07-11T06:14:43.268Z,18.19
2018-07-11T06:15:43.411Z,18.34
2018-07-11T06:16:43.414Z,18.31
2018-07-11T06:17:43.446Z,18.35
2018-07-11T06:18:43.134Z,18.43
2018-07-11T06:19:43.492Z,18.38
2018-07-11T06:20:43.299Z,18.5
2018-07-11T06:21:43.572Z,18.47
2018-07-11T06:22:43.653Z,18.52
2018-07-11T06:23:43.494Z,18.56
2018-07-11T06:24:43.513Z,18.62
2018-07-11T06:25:43.532Z,18.59
2018-07-11T06:26:43.388Z,18.65
2018-07-11T06:27:43.419Z,18.71
2018-07-11T06:28:43.694Z,18.75
2018-07-11T06:29:43.438Z,18.83
2018-07-11T06:30:43.724Z,18.84
2018-07-11T06:31:43.365Z,18.86
2018-07-11T06:32:43.389Z,18.86
2018-07-11T06:33:43.764Z,18.9
2018-07-11T06:34:43.704Z,18.89
2018-07-11T06:35:43.456Z,19
2018-07-11T06:36:43.474Z,18.96
2018-07-11T06:37:43.504Z,19.08
2018-07-11T06:38:43.533Z,19.04
2018-07-11T06:39:43.774Z,19.11
2018-07-11T06:40:43.756Z,19.11
2018-07-11T06:41:43.765Z,19.24
2018-07-11T06:42:43.786Z,19.26
2018-07-11T06:43:43.539Z,19.24
2018-07-11T06:44:43.831Z,19.16
2018-07-11T06:45:43.587Z,19.31
2018-07-11T06:46:43.871Z,19.29
2018-07-11T06:47:43.894Z,19.27
2018-07-11T06:48:44.098Z,19.34
2018-07-11T06:49:43.393Z,19.41
2018-07-11T06:50:43.416Z,19.44
2018-07-11T06:51:43.974Z,19.4
2018-07-11T06:52:43.724Z,19.55
2018-07-11T06:53:43.753Z,19.48
2018-07-11T06:54:44.044Z,19.59
2018-07-11T06:55:43.800Z,19.62
2018-07-11T06:56:43.816Z,19.69
2018-07-11T06:57:43.917Z,19.64
2018-07-11T06:58:43.851Z,19.59
2018-07-11T06:59:43.869Z,19.69
2018-07-11T07:00:43.899Z,19.71
2018-07-11T07:01:43.917Z,19.73
2018-07-11T07:02:43.937Z,19.79
2018-07-11T07:03:44.384Z,19.81
2018-07-11T07:04:44.296Z,19.71
2018-07-11T07:05:44.276Z,19.74
2018-07-11T07:06:44.288Z,19.77
2018-07-11T07:07:44.309Z,19.79
2018-07-11T07:08:44.330Z,19.79
2018-07-11T07:09:44.351Z,19.86
2018-07-11T07:10:44.376Z,19.94
2018-07-11T07:11:44.574Z,19.94
2018-07-11T07:12:44.248Z,19.84
2018-07-11T07:13:44.643Z,19.91
2018-07-11T07:14:44.388Z,20.03
2018-07-11T07:15:44.663Z,20.07
2018-07-11T07:16:44.331Z,20.11
2018-07-11T07:17:44.595Z,20.16
2018-07-11T07:18:44.371Z,20.14
2018-07-11T07:19:44.667Z,20.14
2018-07-11T07:20:44.678Z,20.26
2018-07-11T07:21:44.214Z,20.28
2018-07-11T07:22:44.458Z,20.26
2018-07-11T07:23:44.387Z,20.28
2018-07-11T07:24:44.672Z,20.4
2018-07-11T07:25:44.695Z,20.31
2018-07-11T07:26:44.455Z,20.39
2018-07-11T07:27:44.736Z,20.41
2018-07-11T07:28:44.760Z,20.48
2018-07-11T07:29:44.777Z,20.43
2018-07-11T07:30:44.800Z,20.55
2018-07-11T07:31:44.832Z,20.51
2018-07-11T07:32:44.584Z,20.59
2018-07-11T07:33:44.877Z,20.6
2018-07-11T07:34:45.055Z,20.63
2018-07-11T07:35:44.912Z,20.72
2018-07-11T07:36:44.399Z,20.75
2018-07-11T07:37:44.951Z,20.75
2018-07-11T07:38:44.708Z,20.74
2018-07-11T07:39:44.725Z,20.78
2018-07-11T07:40:45.016Z,20.84
2018-07-11T07:41:44.773Z,20.85
2018-07-11T07:42:45.063Z,20.9
2018-07-11T07:43:45.081Z,20.88
2018-07-11T07:44:44.955Z,20.95
2018-07-11T07:45:45.128Z,20.96
2018-07-11T07:46:45.150Z,20.92
2018-07-11T07:47:45.170Z,21.02
2018-07-11T07:48:45.195Z,21.03
2018-07-11T07:49:45.121Z,21.03
2018-07-11T07:50:45.232Z,21.05
2018-07-11T07:51:45.254Z,21.17
2018-07-11T07:52:45.016Z,21.15
2018-07-11T07:53:45.299Z,21.18
2018-07-11T07:54:45.059Z,21.17
2018-07-11T07:55:45.196Z,21.27
2018-07-11T07:56:45.372Z,21.3
2018-07-11T07:57:45.144Z,21.35
2018-07-11T07:58:45.412Z,21.35
2018-07-11T07:59:45.435Z,21.36
2018-07-11T08:00:45.454Z,21.45
2018-07-11T08:01:45.213Z,21.42
2018-07-11T08:02:45.502Z,21.48
2018-07-11T08:03:45.525Z,21.61
2018-07-11T08:04:45.009Z,21.58
2018-07-11T08:05:45.565Z,21.6
2018-07-11T08:06:45.590Z,21.67
2018-07-11T08:07:45.614Z,21.67
2018-07-11T08:08:45.634Z,21.75
2018-07-11T08:09:45.393Z,21.85
2018-07-11T08:10:45.677Z,21.91
2018-07-11T08:11:45.431Z,21.92
2018-07-11T08:12:46.090Z,22.04
2018-07-11T08:13:45.743Z,22
2018-07-11T08:14:45.229Z,21.99
2018-07-11T08:15:45.785Z,22.14
2018-07-11T08:16:45.550Z,22.17
2018-07-11T08:17:45.832Z,22.25
2018-07-11T08:18:45.588Z,22.29
2018-07-11T08:19:45.615Z,22.35
2018-07-11T08:20:45.630Z,22.41
2018-07-11T08:21:45.928Z,22.5
2018-07-11T08:22:45.943Z,22.51
2018-07-11T08:23:45.968Z,22.5
2018-07-11T08:24:45.989Z,22.62
2018-07-11T08:25:45.746Z,22.6
2018-07-11T08:26:46.077Z,22.65
2018-07-11T08:27:46.063Z,22.69
2018-07-11T08:28:46.081Z,22.8
2018-07-11T08:29:46.111Z,22.78
2018-07-11T08:30:46.128Z,22.84
2018-07-11T08:31:46.150Z,22.88
2018-07-11T08:32:45.903Z,22.93
2018-07-11T08:33:46.190Z,23.02
2018-07-11T08:34:46.414Z,23.02
2018-07-11T08:35:46.238Z,23.1
2018-07-11T08:36:46.261Z,23.24
2018-07-11T08:37:46.289Z,23.25
2018-07-11T08:38:46.308Z,23.18
2018-07-11T08:39:46.072Z,23.37
2018-07-11T08:40:46.360Z,23.39
2018-07-11T08:41:45.845Z,23.48
2018-07-11T08:42:46.406Z,23.54
2018-07-11T08:43:45.888Z,23.63
2018-07-11T08:44:46.184Z,23.69
2018-07-11T08:45:46.658Z,23.71
2018-07-11T08:46:46.502Z,23.77
2018-07-11T08:47:46.686Z,23.81
2018-07-11T08:48:46.004Z,23.83
2018-07-11T08:49:46.560Z,23.95
2018-07-11T08:50:46.316Z,24.02
2018-07-11T08:51:46.604Z,24.08
2018-07-11T08:52:46.364Z,24.17
2018-07-11T08:53:46.657Z,24.29
2018-07-11T08:54:46.683Z,24.29
2018-07-11T08:55:46.434Z,24.4
2018-07-11T08:56:46.725Z,24.48
2018-07-11T08:57:46.751Z,24.45
2018-07-11T08:58:46.504Z,24.53
2018-07-11T08:59:46.808Z,24.58
2018-07-11T09:00:46.556Z,24.63
2018-07-11T09:01:46.848Z,24.66
2018-07-11T09:02:47.009Z,24.6
2018-07-11T09:03:46.622Z,24.74
2018-07-11T09:04:46.649Z,24.77
2018-07-11T09:05:46.679Z,24.76
2018-07-11T09:06:46.969Z,24.78
2018-07-11T09:07:46.731Z,24.76
2018-07-11T09:08:46.744Z,24.84
2018-07-11T09:09:46.774Z,24.77
2018-07-11T09:10:46.872Z,24.84
2018-07-11T09:11:46.548Z,24.91
2018-07-11T09:12:47.109Z,24.86
2018-07-11T09:13:46.861Z,24.86
2018-07-11T09:14:46.892Z,24.86
2018-07-11T09:15:47.175Z,24.92
2018-07-11T09:16:47.205Z,24.93
2018-07-11T09:17:47.273Z,24.99
2018-07-11T09:18:47.297Z,25.01
2018-07-11T09:19:47.273Z,25.03
2018-07-11T09:20:47.033Z,24.98
2018-07-11T09:21:47.440Z,25.03
2018-07-11T09:22:47.350Z,25.03
2018-07-11T09:23:47.117Z,25.01
2018-07-11T09:24:47.574Z,25.04
2018-07-11T09:25:47.504Z,25.07
2018-07-11T09:26:47.177Z,25.03
2018-07-11T09:27:47.520Z,25.11
2018-07-11T09:28:47.494Z,25.07
2018-07-11T09:29:47.256Z,25.08
2018-07-11T09:30:47.329Z,25.1
2018-07-11T09:31:47.579Z,25.08
2018-07-11T09:32:47.327Z,25.16
2018-07-11T09:33:47.351Z,25.11
2018-07-11T09:34:47.416Z,25.08
2018-07-11T09:35:47.663Z,25.17
2018-07-11T09:36:47.156Z,25.21
2018-07-11T09:37:47.452Z,25.21
2018-07-11T09:38:47.740Z,25.18
2018-07-11T09:39:47.260Z,25.21
2018-07-11T09:40:47.524Z,25.18
2018-07-11T09:41:47.884Z,25.26
2018-07-11T09:42:47.638Z,25.22
2018-07-11T09:43:47.902Z,25.23
2018-07-11T09:44:47.409Z,25.26
2018-07-11T09:45:47.653Z,25.23
2018-07-11T09:46:47.672Z,25.31
2018-07-11T09:47:48.072Z,25.25
2018-07-11T09:48:48.078Z,25.25
2018-07-11T09:49:48.065Z,25.29
2018-07-11T09:50:48.081Z,25.31
2018-07-11T09:51:48.061Z,25.31
2018-07-11T09:52:47.819Z,25.32
2018-07-11T09:53:48.115Z,25.35
2018-07-11T09:54:48.138Z,25.31
2018-07-11T09:55:48.157Z,25.35
2018-07-11T09:56:47.944Z,25.43
2018-07-11T09:57:47.751Z,25.47
2018-07-11T09:58:47.994Z,25.48
2018-07-11T09:59:48.016Z,25.46
2018-07-11T10:00:48.303Z,25.46
2018-07-11T10:01:48.309Z,25.55
2018-07-11T10:02:48.073Z,25.62
2018-07-11T10:03:48.094Z,25.48
2018-07-11T10:04:48.385Z,25.58
2018-07-11T10:05:48.146Z,25.68
2018-07-11T10:06:48.442Z,25.62
2018-07-11T10:07:47.927Z,25.73
2018-07-11T10:08:48.486Z,25.77
2018-07-11T10:09:48.253Z,25.8
2018-07-11T10:10:48.549Z,25.88
2018-07-11T10:11:48.760Z,25.93
2018-07-11T10:12:48.057Z,26.03
2018-07-11T10:13:48.762Z,25.96
2018-07-11T10:14:48.471Z,26.13
2018-07-11T10:15:48.890Z,26.06
2018-07-11T10:16:48.425Z,26.22
2018-07-11T10:17:48.718Z,26.23
2018-07-11T10:18:48.749Z,26.28
2018-07-11T10:19:48.496Z,26.29
2018-07-11T10:20:48.797Z,26.34
2018-07-11T10:21:48.995Z,26.4
2018-07-11T10:22:48.843Z,26.52
2018-07-11T10:23:48.598Z,26.55
2018-07-11T10:24:48.892Z,26.65
2018-07-11T10:25:48.652Z,26.63
2018-07-11T10:26:48.972Z,26.77
2018-07-11T10:27:48.972Z,26.78
2018-07-11T10:28:48.993Z,26.88
2018-07-11T10:29:49.026Z,26.93
2018-07-11T10:30:49.048Z,26.92
2018-07-11T10:31:48.803Z,27
2018-07-11T10:32:48.569Z,27.02
2018-07-11T10:33:49.251Z,27
2018-07-11T10:34:49.147Z,26.99
2018-07-11T10:35:48.913Z,27.07
2018-07-11T10:36:49.287Z,27.05
2018-07-11T10:37:48.696Z,27.15
2018-07-11T10:38:48.990Z,27.2
2018-07-11T10:39:49.277Z,27.22
2018-07-11T10:40:49.040Z,27.26
2018-07-11T10:41:49.518Z,27.27
2018-07-11T10:42:49.367Z,27.29
2018-07-11T10:43:49.124Z,27.29
2018-07-11T10:44:49.276Z,27.29
2018-07-11T10:45:49.467Z,27.26
2018-07-11T10:46:49.287Z,27.29
2018-07-11T10:47:49.608Z,27.33
2018-07-11T10:48:49.343Z,27.36
2018-07-11T10:49:49.350Z,27.25
2018-07-11T10:50:49.641Z,27.32
2018-07-11T10:51:49.593Z,27.32
2018-07-11T10:52:49.616Z,27.29
2018-07-11T10:53:49.645Z,27.21
2018-07-11T10:54:49.674Z,27.29
2018-07-11T10:55:49.700Z,27.25
2018-07-11T10:56:49.753Z,27.3
2018-07-11T10:57:50.248Z,27.18
2018-07-11T10:58:49.782Z,27.27
2018-07-11T10:59:49.401Z,27.29
2018-07-11T11:01:10.451Z,27.22
2018-07-11T11:01:49.588Z,27.3
2018-07-11T11:02:49.825Z,27.25
2018-07-11T11:03:49.925Z,27.21
2018-07-11T11:04:50.124Z,27.27
2018-07-11T11:05:49.968Z,27.17
2018-07-11T11:06:49.998Z,27.2
2018-07-11T11:07:50.019Z,27.22
2018-07-11T11:08:50.041Z,27.17
2018-07-11T11:09:50.111Z,27.2
2018-07-11T11:10:50.272Z,27.18
2018-07-11T11:11:50.123Z,27.12
2018-07-11T11:12:49.881Z,27.26
2018-07-11T11:13:50.171Z,27.29
2018-07-11T11:14:50.204Z,27.27
2018-07-11T11:15:50.226Z,27.26
2018-07-11T11:16:50.251Z,27.3
2018-07-11T11:17:50.284Z,27.29
2018-07-11T11:18:50.461Z,27.29
2018-07-11T11:19:50.348Z,27.32
2018-07-11T11:20:50.361Z,27.33
2018-07-11T11:21:50.388Z,27.45
2018-07-11T11:22:50.417Z,27.39
2018-07-11T11:23:50.559Z,27.42
2018-07-11T11:24:50.199Z,27.45
2018-07-11T11:25:50.865Z,27.48
2018-07-11T11:26:50.341Z,27.44
2018-07-11T11:27:50.766Z,27.51
2018-07-11T11:28:50.774Z,27.49
2018-07-11T11:29:50.539Z,27.59
2018-07-11T11:30:50.810Z,27.58
2018-07-11T11:31:50.820Z,27.63
2018-07-11T11:32:50.574Z,27.68
2018-07-11T11:33:50.884Z,27.7
2018-07-11T11:34:50.893Z,27.74
2018-07-11T11:35:50.974Z,27.83
2018-07-11T11:36:50.787Z,27.87
2018-07-11T11:37:50.810Z,27.92
2018-07-11T11:38:50.571Z,27.93
2018-07-11T11:39:50.610Z,28.01
2018-07-11T11:40:50.893Z,28.05
2018-07-11T11:41:51.580Z,28.05
2018-07-11T11:42:50.554Z,28.1
2018-07-11T11:43:50.822Z,28.27
2018-07-11T11:44:51.134Z,28.32
2018-07-11T11:45:50.884Z,28.42
2018-07-11T11:46:50.787Z,28.42
2018-07-11T11:47:51.083Z,28.49
2018-07-11T11:48:51.105Z,28.66
2018-07-11T11:49:51.134Z,28.67
2018-07-11T11:50:51.161Z,28.78
2018-07-11T11:51:51.357Z,28.74
2018-07-11T11:52:51.308Z,28.82
2018-07-11T11:53:51.097Z,28.84
2018-07-11T11:54:51.005Z,28.88
2018-07-11T11:55:51.491Z,28.85
2018-07-11T11:56:51.063Z,28.96
2018-07-11T11:57:51.354Z,28.98
2018-07-11T11:58:51.203Z,28.98
2018-07-11T11:59:51.254Z,29.05
2018-07-11T12:00:51.170Z,29.14
2018-07-11T12:01:51.801Z,29.17
2018-07-11T12:02:50.964Z,29.29
2018-07-11T12:03:51.523Z,29.39
2018-07-11T12:04:51.549Z,29.51
2018-07-11T12:05:51.589Z,29.53
2018-07-11T12:06:51.340Z,29.66
2018-07-11T12:07:51.366Z,29.82
2018-07-11T12:08:51.391Z,30.02
2018-07-11T12:09:51.419Z,30.08
2018-07-11T12:10:51.183Z,30.18
2018-07-11T12:11:51.496Z,30.21
2018-07-11T12:12:51.521Z,30.31
2018-07-11T12:13:51.796Z,30.46
2018-07-11T12:14:51.562Z,30.57
2018-07-11T12:15:52.001Z,30.62
2018-07-11T12:16:52.152Z,30.73
2018-07-11T12:17:51.875Z,30.78
2018-07-11T12:18:51.726Z,30.85
2018-07-11T12:19:51.970Z,30.9
2018-07-11T12:20:51.999Z,30.99
2018-07-11T12:21:52.076Z,31
2018-07-11T12:22:51.524Z,31.1
2018-07-11T12:23:51.812Z,31.06
2018-07-11T12:24:52.111Z,30.96
2018-07-11T12:25:51.878Z,31.09
2018-07-11T12:26:52.168Z,31.07
2018-07-11T12:27:52.197Z,31.14
2018-07-11T12:28:51.689Z,31.14
2018-07-11T12:29:52.261Z,31.2
2018-07-11T12:30:52.019Z,31.22
2018-07-11T12:31:52.319Z,31.25
2018-07-11T12:32:52.342Z,31.25
2018-07-11T12:33:52.098Z,31.28
2018-07-11T12:34:52.398Z,31.36
2018-07-11T12:35:52.426Z,31.4
2018-07-11T12:36:52.451Z,31.4
2018-07-11T12:37:52.490Z,31.39
2018-07-11T12:38:52.248Z,31.4
2018-07-11T12:39:52.274Z,31.34
2018-07-11T12:40:52.574Z,31.43
2018-07-11T12:41:52.597Z,31.43
2018-07-11T12:42:52.639Z,31.34
2018-07-11T12:43:52.394Z,31.42
2018-07-11T12:44:52.421Z,31.4
2018-07-11T12:45:52.717Z,31.4
2018-07-11T12:46:52.484Z,31.56
2018-07-11T12:47:52.772Z,31.55
2018-07-11T12:48:52.542Z,31.55
2018-07-11T12:49:52.833Z,31.64
2018-07-11T12:50:52.787Z,31.64
2018-07-11T12:51:52.625Z,31.55
2018-07-11T12:52:53.112Z,31.64
2018-07-11T12:53:52.953Z,31.56
2018-07-11T12:54:52.707Z,31.61
2018-07-11T12:55:52.741Z,31.54